sensor_id;sensor_type;location;lat;lon;timestamp;P1;durP1;ratioP1;P2;durP2;ratioP2
59300;SDS011;45073;52.740;6.784;2023-08-12T00:01:42;14.25;;;8.32;;
59300;SDS011;45073;52.740;6.784;2023-08-12T00:04:07;12.45;;;8.95;;
59300;SDS011;45073;52.740;6.784;2023-08-12T00:06:33;11.43;;;8.50;;
59300;SDS011;45073;52.740;6.784;2023-08-12T00:08:58;12.10;;;8.35;;
59300;SDS011;45073;52.740;6.784;2023-08-12T00:11:24;12.88;;;9.32;;
59300;SDS011;45073;52.740;6.784;2023-08-12T00:13:50;11.95;;;8.50;;
59300;SDS011;45073;52.740;6.784;2023-08-12T00:16:15;13.07;;;8.40;;
59300;SDS011;45073;52.740;6.784;2023-08-12T00:18:41;14.77;;;9.10;;
59300;SDS011;45073;52.740;6.784;2023-08-12T00:21:08;14.15;;;10.20;;
59300;SDS011;45073;52.740;6.784;2023-08-12T00:23:38;12.32;;;9.05;;
59300;SDS011;45073;52.740;6.784;2023-08-12T00:26:06;14.27;;;10.68;;
59300;SDS011;45073;52.740;6.784;2023-08-12T00:28:32;13.82;;;10.15;;
59300;SDS011;45073;52.740;6.784;2023-08-12T00:30:58;12.63;;;10.00;;
59300;SDS011;45073;52.740;6.784;2023-08-12T00:33:24;12.07;;;9.35;;
59300;SDS011;45073;52.740;6.784;2023-08-12T00:35:50;15.52;;;10.70;;
59300;SDS011;45073;52.740;6.784;2023-08-12T00:38:15;13.80;;;9.90;;
59300;SDS011;45073;52.740;6.784;2023-08-12T00:40:41;14.55;;;10.35;;
59300;SDS011;45073;52.740;6.784;2023-08-12T00:43:06;14.13;;;10.40;;
59300;SDS011;45073;52.740;6.784;2023-08-12T00:45:34;13.88;;;10.63;;
59300;SDS011;45073;52.740;6.784;2023-08-12T00:48:00;13.30;;;9.82;;
59300;SDS011;45073;52.740;6.784;2023-08-12T00:50:26;16.02;;;11.13;;
59300;SDS011;45073;52.740;6.784;2023-08-12T00:52:53;15.48;;;11.13;;
59300;SDS011;45073;52.740;6.784;2023-08-12T00:55:19;16.90;;;12.10;;
59300;SDS011;45073;52.740;6.784;2023-08-12T00:57:45;16.77;;;12.60;;
59300;SDS011;45073;52.740;6.784;2023-08-12T01:00:10;15.25;;;11.63;;
59300;SDS011;45073;52.740;6.784;2023-08-12T01:02:37;16.73;;;13.10;;
59300;SDS011;45073;52.740;6.784;2023-08-12T01:05:03;17.55;;;12.90;;
59300;SDS011;45073;52.740;6.784;2023-08-12T01:07:29;17.48;;;12.95;;
59300;SDS011;45073;52.740;6.784;2023-08-12T01:09:54;15.88;;;12.23;;
59300;SDS011;45073;52.740;6.784;2023-08-12T01:12:32;18.05;;;12.57;;
59300;SDS011;45073;52.740;6.784;2023-08-12T01:15:04;16.05;;;12.20;;
59300;SDS011;45073;52.740;6.784;2023-08-12T01:17:33;14.93;;;11.75;;
59300;SDS011;45073;52.740;6.784;2023-08-12T01:20:02;15.95;;;12.50;;
59300;SDS011;45073;52.740;6.784;2023-08-12T01:22:38;16.50;;;12.02;;
59300;SDS011;45073;52.740;6.784;2023-08-12T01:25:07;15.45;;;12.15;;
59300;SDS011;45073;52.740;6.784;2023-08-12T01:27:34;16.70;;;12.20;;
59300;SDS011;45073;52.740;6.784;2023-08-12T01:30:00;16.20;;;12.43;;
59300;SDS011;45073;52.740;6.784;2023-08-12T01:32:38;19.15;;;12.75;;
59300;SDS011;45073;52.740;6.784;2023-08-12T01:37:39;16.30;;;11.95;;
59300;SDS011;45073;52.740;6.784;2023-08-12T01:40:05;18.10;;;12.40;;
59300;SDS011;45073;52.740;6.784;2023-08-12T01:42:34;18.02;;;12.30;;
59300;SDS011;45073;52.740;6.784;2023-08-12T01:45:01;16.83;;;11.73;;
59300;SDS011;45073;52.740;6.784;2023-08-12T01:47:27;16.38;;;11.20;;
59300;SDS011;45073;52.740;6.784;2023-08-12T01:49:53;15.25;;;11.10;;
59300;SDS011;45073;52.740;6.784;2023-08-12T01:52:20;17.17;;;12.75;;
59300;SDS011;45073;52.740;6.784;2023-08-12T01:54:45;14.68;;;11.85;;
59300;SDS011;45073;52.740;6.784;2023-08-12T01:57:11;15.23;;;12.07;;
59300;SDS011;45073;52.740;6.784;2023-08-12T01:59:37;16.27;;;13.45;;
59300;SDS011;45073;52.740;6.784;2023-08-12T02:02:03;17.23;;;12.10;;
59300;SDS011;45073;52.740;6.784;2023-08-12T02:04:29;17.70;;;14.38;;
59300;SDS011;45073;52.740;6.784;2023-08-12T02:06:56;16.55;;;12.77;;
59300;SDS011;45073;52.740;6.784;2023-08-12T02:09:21;17.25;;;13.18;;
59300;SDS011;45073;52.740;6.784;2023-08-12T02:11:47;18.15;;;13.07;;
59300;SDS011;45073;52.740;6.784;2023-08-12T02:14:14;15.98;;;12.48;;
59300;SDS011;45073;52.740;6.784;2023-08-12T02:16:40;16.10;;;12.45;;
59300;SDS011;45073;52.740;6.784;2023-08-12T02:19:05;18.35;;;13.98;;
59300;SDS011;45073;52.740;6.784;2023-08-12T02:21:31;16.23;;;12.40;;
59300;SDS011;45073;52.740;6.784;2023-08-12T02:23:57;18.92;;;13.48;;
59300;SDS011;45073;52.740;6.784;2023-08-12T02:26:23;17.23;;;13.43;;
59300;SDS011;45073;52.740;6.784;2023-08-12T02:28:48;17.95;;;13.75;;
59300;SDS011;45073;52.740;6.784;2023-08-12T02:31:15;15.82;;;12.85;;
59300;SDS011;45073;52.740;6.784;2023-08-12T02:33:41;15.43;;;12.15;;
59300;SDS011;45073;52.740;6.784;2023-08-12T02:36:07;16.45;;;13.25;;
59300;SDS011;45073;52.740;6.784;2023-08-12T02:38:33;15.25;;;12.23;;
59300;SDS011;45073;52.740;6.784;2023-08-12T02:40:58;16.80;;;12.52;;
59300;SDS011;45073;52.740;6.784;2023-08-12T02:43:24;15.68;;;12.23;;
59300;SDS011;45073;52.740;6.784;2023-08-12T02:45:49;16.70;;;12.55;;
59300;SDS011;45073;52.740;6.784;2023-08-12T02:48:15;16.80;;;13.20;;
59300;SDS011;45073;52.740;6.784;2023-08-12T02:50:41;17.67;;;12.82;;
59300;SDS011;45073;52.740;6.784;2023-08-12T02:53:07;15.48;;;11.75;;
59300;SDS011;45073;52.740;6.784;2023-08-12T02:55:33;18.42;;;13.77;;
59300;SDS011;45073;52.740;6.784;2023-08-12T02:57:59;15.77;;;11.48;;
59300;SDS011;45073;52.740;6.784;2023-08-12T03:00:26;15.60;;;11.13;;
59300;SDS011;45073;52.740;6.784;2023-08-12T03:02:52;19.70;;;12.18;;
59300;SDS011;45073;52.740;6.784;2023-08-12T03:05:18;15.45;;;11.23;;
59300;SDS011;45073;52.740;6.784;2023-08-12T03:07:44;18.08;;;13.48;;
59300;SDS011;45073;52.740;6.784;2023-08-12T03:10:10;15.77;;;11.73;;
59300;SDS011;45073;52.740;6.784;2023-08-12T03:12:36;15.18;;;11.48;;
59300;SDS011;45073;52.740;6.784;2023-08-12T03:15:02;16.42;;;12.05;;
59300;SDS011;45073;52.740;6.784;2023-08-12T03:17:28;17.40;;;12.18;;
59300;SDS011;45073;52.740;6.784;2023-08-12T03:19:53;18.10;;;12.63;;
59300;SDS011;45073;52.740;6.784;2023-08-12T03:22:21;13.85;;;11.27;;
59300;SDS011;45073;52.740;6.784;2023-08-12T03:24:47;15.98;;;11.63;;
59300;SDS011;45073;52.740;6.784;2023-08-12T03:27:13;16.05;;;12.02;;
59300;SDS011;45073;52.740;6.784;2023-08-12T03:29:39;18.13;;;13.15;;
59300;SDS011;45073;52.740;6.784;2023-08-12T03:32:05;16.60;;;11.65;;
59300;SDS011;45073;52.740;6.784;2023-08-12T03:34:30;16.48;;;12.95;;
59300;SDS011;45073;52.740;6.784;2023-08-12T03:36:56;17.38;;;12.50;;
59300;SDS011;45073;52.740;6.784;2023-08-12T03:39:21;15.77;;;11.80;;
59300;SDS011;45073;52.740;6.784;2023-08-12T03:41:47;17.17;;;12.45;;
59300;SDS011;45073;52.740;6.784;2023-08-12T03:44:15;18.20;;;12.70;;
59300;SDS011;45073;52.740;6.784;2023-08-12T03:46:40;13.88;;;11.88;;
59300;SDS011;45073;52.740;6.784;2023-08-12T03:49:06;17.30;;;12.32;;
59300;SDS011;45073;52.740;6.784;2023-08-12T03:51:32;16.27;;;13.13;;
59300;SDS011;45073;52.740;6.784;2023-08-12T03:53:58;14.75;;;11.55;;
59300;SDS011;45073;52.740;6.784;2023-08-12T03:56:24;15.15;;;11.88;;
59300;SDS011;45073;52.740;6.784;2023-08-12T03:58:49;18.80;;;12.75;;
59300;SDS011;45073;52.740;6.784;2023-08-12T04:01:15;18.15;;;12.93;;
59300;SDS011;45073;52.740;6.784;2023-08-12T04:03:40;16.75;;;13.48;;
59300;SDS011;45073;52.740;6.784;2023-08-12T04:06:06;19.02;;;14.35;;
59300;SDS011;45073;52.740;6.784;2023-08-12T04:08:32;19.58;;;15.70;;
59300;SDS011;45073;52.740;6.784;2023-08-12T04:10:58;17.33;;;12.70;;
59300;SDS011;45073;52.740;6.784;2023-08-12T04:13:24;17.33;;;12.85;;
59300;SDS011;45073;52.740;6.784;2023-08-12T04:15:50;19.02;;;13.55;;
59300;SDS011;45073;52.740;6.784;2023-08-12T04:18:18;16.73;;;13.52;;
59300;SDS011;45073;52.740;6.784;2023-08-12T04:20:53;18.13;;;13.43;;
59300;SDS011;45073;52.740;6.784;2023-08-12T04:23:19;19.35;;;14.45;;
59300;SDS011;45073;52.740;6.784;2023-08-12T04:25:45;18.25;;;15.10;;
59300;SDS011;45073;52.740;6.784;2023-08-12T04:28:12;18.73;;;15.40;;
59300;SDS011;45073;52.740;6.784;2023-08-12T04:30:42;20.35;;;15.60;;
59300;SDS011;45073;52.740;6.784;2023-08-12T04:33:08;17.73;;;15.82;;
59300;SDS011;45073;52.740;6.784;2023-08-12T04:35:34;23.27;;;16.25;;
59300;SDS011;45073;52.740;6.784;2023-08-12T04:38:00;21.05;;;16.35;;
59300;SDS011;45073;52.740;6.784;2023-08-12T04:40:26;20.00;;;16.98;;
59300;SDS011;45073;52.740;6.784;2023-08-12T04:42:52;21.83;;;16.95;;
59300;SDS011;45073;52.740;6.784;2023-08-12T04:45:18;19.65;;;16.27;;
59300;SDS011;45073;52.740;6.784;2023-08-12T04:47:43;24.27;;;19.70;;
59300;SDS011;45073;52.740;6.784;2023-08-12T04:50:09;22.23;;;18.30;;
59300;SDS011;45073;52.740;6.784;2023-08-12T04:52:35;25.38;;;18.65;;
59300;SDS011;45073;52.740;6.784;2023-08-12T04:55:01;23.70;;;18.85;;
59300;SDS011;45073;52.740;6.784;2023-08-12T04:57:28;22.38;;;18.08;;
59300;SDS011;45073;52.740;6.784;2023-08-12T04:59:53;24.95;;;20.08;;
59300;SDS011;45073;52.740;6.784;2023-08-12T05:02:20;23.80;;;20.38;;
59300;SDS011;45073;52.740;6.784;2023-08-12T05:04:49;22.45;;;19.52;;
59300;SDS011;45073;52.740;6.784;2023-08-12T05:07:16;22.40;;;19.35;;
59300;SDS011;45073;52.740;6.784;2023-08-12T05:09:42;26.40;;;21.38;;
59300;SDS011;45073;52.740;6.784;2023-08-12T05:12:10;25.92;;;20.88;;
59300;SDS011;45073;52.740;6.784;2023-08-12T05:14:37;22.98;;;20.50;;
59300;SDS011;45073;52.740;6.784;2023-08-12T05:17:04;23.67;;;21.13;;
59300;SDS011;45073;52.740;6.784;2023-08-12T05:19:30;26.50;;;21.92;;
59300;SDS011;45073;52.740;6.784;2023-08-12T05:21:56;26.35;;;21.40;;
59300;SDS011;45073;52.740;6.784;2023-08-12T05:24:22;26.08;;;23.08;;
59300;SDS011;45073;52.740;6.784;2023-08-12T05:26:47;25.77;;;21.92;;
59300;SDS011;45073;52.740;6.784;2023-08-12T05:29:13;25.70;;;22.42;;
59300;SDS011;45073;52.740;6.784;2023-08-12T05:31:38;26.95;;;22.63;;
59300;SDS011;45073;52.740;6.784;2023-08-12T05:34:04;26.42;;;22.25;;
59300;SDS011;45073;52.740;6.784;2023-08-12T05:36:30;24.35;;;21.75;;
59300;SDS011;45073;52.740;6.784;2023-08-12T05:38:56;26.17;;;23.20;;
59300;SDS011;45073;52.740;6.784;2023-08-12T05:41:21;30.08;;;25.33;;
59300;SDS011;45073;52.740;6.784;2023-08-12T05:43:50;26.27;;;23.48;;
59300;SDS011;45073;52.740;6.784;2023-08-12T05:46:16;26.55;;;22.35;;
59300;SDS011;45073;52.740;6.784;2023-08-12T05:48:42;26.98;;;23.60;;
59300;SDS011;45073;52.740;6.784;2023-08-12T05:51:07;27.10;;;22.90;;
59300;SDS011;45073;52.740;6.784;2023-08-12T05:53:33;23.35;;;20.45;;
59300;SDS011;45073;52.740;6.784;2023-08-12T05:55:59;26.55;;;23.73;;
59300;SDS011;45073;52.740;6.784;2023-08-12T05:58:24;25.58;;;22.88;;
59300;SDS011;45073;52.740;6.784;2023-08-12T06:00:50;25.23;;;20.50;;
59300;SDS011;45073;52.740;6.784;2023-08-12T06:03:16;26.42;;;23.48;;
59300;SDS011;45073;52.740;6.784;2023-08-12T06:05:43;26.73;;;23.83;;
59300;SDS011;45073;52.740;6.784;2023-08-12T06:08:11;27.00;;;24.25;;
59300;SDS011;45073;52.740;6.784;2023-08-12T06:10:37;28.38;;;25.35;;
59300;SDS011;45073;52.740;6.784;2023-08-12T06:13:03;28.67;;;25.30;;
59300;SDS011;45073;52.740;6.784;2023-08-12T06:15:29;29.08;;;26.08;;
59300;SDS011;45073;52.740;6.784;2023-08-12T06:17:55;28.77;;;25.38;;
59300;SDS011;45073;52.740;6.784;2023-08-12T06:20:21;30.50;;;26.50;;
59300;SDS011;45073;52.740;6.784;2023-08-12T06:22:47;28.83;;;25.92;;
59300;SDS011;45073;52.740;6.784;2023-08-12T06:25:16;29.55;;;26.35;;
59300;SDS011;45073;52.740;6.784;2023-08-12T06:27:42;29.70;;;26.83;;
59300;SDS011;45073;52.740;6.784;2023-08-12T06:30:08;29.00;;;25.50;;
59300;SDS011;45073;52.740;6.784;2023-08-12T06:32:35;30.83;;;27.52;;
59300;SDS011;45073;52.740;6.784;2023-08-12T06:35:01;29.95;;;26.73;;
59300;SDS011;45073;52.740;6.784;2023-08-12T06:37:26;29.88;;;26.73;;
59300;SDS011;45073;52.740;6.784;2023-08-12T06:39:52;27.55;;;24.65;;
59300;SDS011;45073;52.740;6.784;2023-08-12T06:42:17;27.88;;;25.02;;
59300;SDS011;45073;52.740;6.784;2023-08-12T06:44:43;27.98;;;24.98;;
59300;SDS011;45073;52.740;6.784;2023-08-12T06:47:10;29.77;;;26.60;;
59300;SDS011;45073;52.740;6.784;2023-08-12T06:49:35;28.60;;;25.70;;
59300;SDS011;45073;52.740;6.784;2023-08-12T06:52:01;29.58;;;26.40;;
59300;SDS011;45073;52.740;6.784;2023-08-12T06:54:27;27.25;;;24.50;;
59300;SDS011;45073;52.740;6.784;2023-08-12T06:56:52;27.85;;;25.02;;
59300;SDS011;45073;52.740;6.784;2023-08-12T06:59:18;28.00;;;25.13;;
59300;SDS011;45073;52.740;6.784;2023-08-12T07:01:44;28.20;;;25.25;;
59300;SDS011;45073;52.740;6.784;2023-08-12T07:04:09;27.35;;;24.50;;
59300;SDS011;45073;52.740;6.784;2023-08-12T07:06:35;27.38;;;24.67;;
59300;SDS011;45073;52.740;6.784;2023-08-12T07:09:00;27.15;;;24.27;;
59300;SDS011;45073;52.740;6.784;2023-08-12T07:11:26;27.27;;;24.38;;
59300;SDS011;45073;52.740;6.784;2023-08-12T07:13:52;25.55;;;22.55;;
59300;SDS011;45073;52.740;6.784;2023-08-12T07:16:17;25.50;;;22.65;;
59300;SDS011;45073;52.740;6.784;2023-08-12T07:18:43;27.70;;;23.38;;
59300;SDS011;45073;52.740;6.784;2023-08-12T07:21:08;26.75;;;23.77;;
59300;SDS011;45073;52.740;6.784;2023-08-12T07:23:34;24.52;;;22.08;;
59300;SDS011;45073;52.740;6.784;2023-08-12T07:26:00;24.35;;;21.63;;
59300;SDS011;45073;52.740;6.784;2023-08-12T07:28:25;24.77;;;22.08;;
59300;SDS011;45073;52.740;6.784;2023-08-12T07:30:51;23.75;;;21.20;;
59300;SDS011;45073;52.740;6.784;2023-08-12T07:33:17;22.63;;;20.20;;
59300;SDS011;45073;52.740;6.784;2023-08-12T07:35:44;22.52;;;20.15;;
59300;SDS011;45073;52.740;6.784;2023-08-12T07:38:10;22.80;;;19.10;;
59300;SDS011;45073;52.740;6.784;2023-08-12T07:40:35;23.48;;;19.33;;
59300;SDS011;45073;52.740;6.784;2023-08-12T07:43:01;22.50;;;19.27;;
59300;SDS011;45073;52.740;6.784;2023-08-12T07:45:27;20.92;;;17.85;;
59300;SDS011;45073;52.740;6.784;2023-08-12T07:47:53;20.98;;;18.70;;
59300;SDS011;45073;52.740;6.784;2023-08-12T07:50:18;21.27;;;19.08;;
59300;SDS011;45073;52.740;6.784;2023-08-12T07:52:44;22.10;;;19.25;;
59300;SDS011;45073;52.740;6.784;2023-08-12T07:55:11;20.45;;;18.23;;
59300;SDS011;45073;52.740;6.784;2023-08-12T07:57:37;19.77;;;17.67;;
59300;SDS011;45073;52.740;6.784;2023-08-12T08:00:03;19.77;;;17.63;;
59300;SDS011;45073;52.740;6.784;2023-08-12T08:02:30;19.65;;;17.35;;
59300;SDS011;45073;52.740;6.784;2023-08-12T08:04:55;21.42;;;18.83;;
59300;SDS011;45073;52.740;6.784;2023-08-12T08:07:21;20.35;;;17.35;;
59300;SDS011;45073;52.740;6.784;2023-08-12T08:09:47;20.13;;;17.30;;
59300;SDS011;45073;52.740;6.784;2023-08-12T08:12:12;19.35;;;17.30;;
59300;SDS011;45073;52.740;6.784;2023-08-12T08:14:38;20.40;;;18.20;;
59300;SDS011;45073;52.740;6.784;2023-08-12T08:17:04;22.25;;;18.50;;
59300;SDS011;45073;52.740;6.784;2023-08-12T08:19:30;21.83;;;18.77;;
59300;SDS011;45073;52.740;6.784;2023-08-12T08:21:56;19.23;;;17.13;;
59300;SDS011;45073;52.740;6.784;2023-08-12T08:24:23;19.70;;;17.25;;
59300;SDS011;45073;52.740;6.784;2023-08-12T08:26:48;20.52;;;18.38;;
59300;SDS011;45073;52.740;6.784;2023-08-12T08:29:14;19.17;;;17.15;;
59300;SDS011;45073;52.740;6.784;2023-08-12T08:31:40;22.00;;;19.35;;
59300;SDS011;45073;52.740;6.784;2023-08-12T08:34:05;23.73;;;20.45;;
59300;SDS011;45073;52.740;6.784;2023-08-12T08:36:31;20.70;;;18.50;;
59300;SDS011;45073;52.740;6.784;2023-08-12T08:38:57;20.27;;;18.05;;
59300;SDS011;45073;52.740;6.784;2023-08-12T08:41:23;21.17;;;18.20;;
59300;SDS011;45073;52.740;6.784;2023-08-12T08:43:49;20.10;;;18.00;;
59300;SDS011;45073;52.740;6.784;2023-08-12T08:46:17;19.00;;;17.00;;
59300;SDS011;45073;52.740;6.784;2023-08-12T08:48:44;20.88;;;18.67;;
59300;SDS011;45073;52.740;6.784;2023-08-12T08:51:11;18.25;;;16.42;;
59300;SDS011;45073;52.740;6.784;2023-08-12T08:53:37;19.05;;;16.73;;
59300;SDS011;45073;52.740;6.784;2023-08-12T08:56:07;18.27;;;16.35;;
59300;SDS011;45073;52.740;6.784;2023-08-12T08:58:39;18.67;;;16.77;;
59300;SDS011;45073;52.740;6.784;2023-08-12T09:01:05;19.20;;;17.20;;
59300;SDS011;45073;52.740;6.784;2023-08-12T09:03:33;17.55;;;15.68;;
59300;SDS011;45073;52.740;6.784;2023-08-12T09:06:01;18.20;;;16.25;;
59300;SDS011;45073;52.740;6.784;2023-08-12T09:08:28;17.67;;;15.25;;
59300;SDS011;45073;52.740;6.784;2023-08-12T09:10:56;17.45;;;15.65;;
59300;SDS011;45073;52.740;6.784;2023-08-12T09:13:24;17.70;;;15.90;;
59300;SDS011;45073;52.740;6.784;2023-08-12T09:15:50;17.55;;;15.63;;
59300;SDS011;45073;52.740;6.784;2023-08-12T09:18:16;17.70;;;16.00;;
59300;SDS011;45073;52.740;6.784;2023-08-12T09:20:42;16.85;;;14.82;;
59300;SDS011;45073;52.740;6.784;2023-08-12T09:23:08;18.90;;;17.00;;
59300;SDS011;45073;52.740;6.784;2023-08-12T09:25:38;18.20;;;16.33;;
59300;SDS011;45073;52.740;6.784;2023-08-12T09:28:07;16.90;;;15.15;;
59300;SDS011;45073;52.740;6.784;2023-08-12T09:30:34;17.30;;;15.10;;
59300;SDS011;45073;52.740;6.784;2023-08-12T09:33:00;16.55;;;14.65;;
59300;SDS011;45073;52.740;6.784;2023-08-12T09:35:36;15.27;;;13.73;;
59300;SDS011;45073;52.740;6.784;2023-08-12T09:38:05;16.40;;;14.70;;
59300;SDS011;45073;52.740;6.784;2023-08-12T09:40:33;14.13;;;12.63;;
59300;SDS011;45073;52.740;6.784;2023-08-12T09:43:00;15.65;;;13.88;;
59300;SDS011;45073;52.740;6.784;2023-08-12T09:45:26;15.00;;;13.40;;
59300;SDS011;45073;52.740;6.784;2023-08-12T09:47:52;13.57;;;12.13;;
59300;SDS011;45073;52.740;6.784;2023-08-12T09:50:22;9.38;;;7.45;;
59300;SDS011;45073;52.740;6.784;2023-08-12T09:52:50;11.05;;;8.07;;
59300;SDS011;45073;52.740;6.784;2023-08-12T09:55:18;10.50;;;7.35;;
59300;SDS011;45073;52.740;6.784;2023-08-12T09:57:44;11.35;;;7.57;;
59300;SDS011;45073;52.740;6.784;2023-08-12T10:00:14;11.50;;;8.00;;
59300;SDS011;45073;52.740;6.784;2023-08-12T10:02:44;10.90;;;7.68;;
59300;SDS011;45073;52.740;6.784;2023-08-12T10:05:32;10.25;;;7.32;;
59300;SDS011;45073;52.740;6.784;2023-08-12T10:07:57;9.55;;;6.97;;
59300;SDS011;45073;52.740;6.784;2023-08-12T10:10:25;8.48;;;5.50;;
59300;SDS011;45073;52.740;6.784;2023-08-12T10:12:51;7.88;;;4.40;;
59300;SDS011;45073;52.740;6.784;2023-08-12T10:15:17;10.43;;;6.32;;
59300;SDS011;45073;52.740;6.784;2023-08-12T10:17:44;10.30;;;6.57;;
59300;SDS011;45073;52.740;6.784;2023-08-12T10:20:14;9.70;;;6.55;;
59300;SDS011;45073;52.740;6.784;2023-08-12T10:22:45;11.73;;;6.07;;
59300;SDS011;45073;52.740;6.784;2023-08-12T10:25:11;9.15;;;6.07;;
59300;SDS011;45073;52.740;6.784;2023-08-12T10:27:38;8.77;;;5.30;;
59300;SDS011;45073;52.740;6.784;2023-08-12T10:30:04;7.88;;;4.38;;
59300;SDS011;45073;52.740;6.784;2023-08-12T10:32:31;8.48;;;4.45;;
59300;SDS011;45073;52.740;6.784;2023-08-12T10:34:58;6.95;;;3.97;;
59300;SDS011;45073;52.740;6.784;2023-08-12T10:37:24;6.07;;;3.33;;
59300;SDS011;45073;52.740;6.784;2023-08-12T10:39:54;6.82;;;3.22;;
59300;SDS011;45073;52.740;6.784;2023-08-12T10:45:06;7.05;;;3.72;;
59300;SDS011;45073;52.740;6.784;2023-08-12T10:47:32;6.80;;;2.83;;
59300;SDS011;45073;52.740;6.784;2023-08-12T10:49:59;6.05;;;2.80;;
59300;SDS011;45073;52.740;6.784;2023-08-12T10:52:27;5.78;;;2.58;;
59300;SDS011;45073;52.740;6.784;2023-08-12T10:54:53;5.18;;;2.42;;
59300;SDS011;45073;52.740;6.784;2023-08-12T10:57:25;5.32;;;2.35;;
59300;SDS011;45073;52.740;6.784;2023-08-12T11:00:03;5.00;;;2.38;;
59300;SDS011;45073;52.740;6.784;2023-08-12T11:02:33;4.13;;;2.03;;
59300;SDS011;45073;52.740;6.784;2023-08-12T11:10:32;1.75;;;0.90;;
59300;SDS011;45073;52.740;6.784;2023-08-12T11:12:59;2.15;;;1.10;;
59300;SDS011;45073;52.740;6.784;2023-08-12T11:15:29;2.70;;;1.13;;
59300;SDS011;45073;52.740;6.784;2023-08-12T11:17:55;2.80;;;1.20;;
59300;SDS011;45073;52.740;6.784;2023-08-12T11:20:21;3.20;;;1.20;;
59300;SDS011;45073;52.740;6.784;2023-08-12T11:22:47;2.45;;;1.00;;
59300;SDS011;45073;52.740;6.784;2023-08-12T11:25:13;2.97;;;1.13;;
59300;SDS011;45073;52.740;6.784;2023-08-12T11:27:40;2.40;;;1.10;;
59300;SDS011;45073;52.740;6.784;2023-08-12T11:30:06;1.40;;;0.90;;
59300;SDS011;45073;52.740;6.784;2023-08-12T11:32:33;2.35;;;0.93;;
59300;SDS011;45073;52.740;6.784;2023-08-12T11:34:59;1.63;;;0.80;;
59300;SDS011;45073;52.740;6.784;2023-08-12T11:37:25;2.15;;;0.98;;
59300;SDS011;45073;52.740;6.784;2023-08-12T11:39:51;1.70;;;0.80;;
59300;SDS011;45073;52.740;6.784;2023-08-12T11:42:17;2.63;;;0.90;;
59300;SDS011;45073;52.740;6.784;2023-08-12T11:44:43;2.03;;;0.90;;
59300;SDS011;45073;52.740;6.784;2023-08-12T11:47:09;1.95;;;0.80;;
59300;SDS011;45073;52.740;6.784;2023-08-12T11:49:34;3.30;;;1.00;;
59300;SDS011;45073;52.740;6.784;2023-08-12T11:52:00;1.83;;;0.73;;
59300;SDS011;45073;52.740;6.784;2023-08-12T11:54:26;2.05;;;0.98;;
59300;SDS011;45073;52.740;6.784;2023-08-12T11:56:52;1.90;;;0.82;;
59300;SDS011;45073;52.740;6.784;2023-08-12T11:59:20;2.67;;;0.88;;
59300;SDS011;45073;52.740;6.784;2023-08-12T12:01:46;2.83;;;0.85;;
59300;SDS011;45073;52.740;6.784;2023-08-12T12:04:14;1.65;;;0.95;;
59300;SDS011;45073;52.740;6.784;2023-08-12T12:06:41;2.13;;;0.90;;
59300;SDS011;45073;52.740;6.784;2023-08-12T12:09:07;2.88;;;1.13;;
59300;SDS011;45073;52.740;6.784;2023-08-12T12:11:37;1.45;;;0.93;;
59300;SDS011;45073;52.740;6.784;2023-08-12T12:14:03;3.22;;;1.60;;
59300;SDS011;45073;52.740;6.784;2023-08-12T12:17:06;4.05;;;1.45;;
59300;SDS011;45073;52.740;6.784;2023-08-12T12:19:21;2.60;;;1.40;;
59300;SDS011;45073;52.740;6.784;2023-08-12T12:21:48;3.17;;;1.42;;
59300;SDS011;45073;52.740;6.784;2023-08-12T12:24:15;2.97;;;1.45;;
59300;SDS011;45073;52.740;6.784;2023-08-12T12:26:42;3.15;;;1.45;;
59300;SDS011;45073;52.740;6.784;2023-08-12T12:29:09;3.85;;;1.70;;
59300;SDS011;45073;52.740;6.784;2023-08-12T12:31:36;3.28;;;1.27;;
59300;SDS011;45073;52.740;6.784;2023-08-12T12:34:02;4.30;;;1.77;;
59300;SDS011;45073;52.740;6.784;2023-08-12T12:36:32;5.55;;;2.40;;
59300;SDS011;45073;52.740;6.784;2023-08-12T12:39:02;5.80;;;2.33;;
59300;SDS011;45073;52.740;6.784;2023-08-12T12:41:30;5.68;;;2.28;;
59300;SDS011;45073;52.740;6.784;2023-08-12T12:43:56;5.32;;;2.22;;
59300;SDS011;45073;52.740;6.784;2023-08-12T12:46:22;5.78;;;2.30;;
59300;SDS011;45073;52.740;6.784;2023-08-12T12:48:47;5.70;;;2.00;;
59300;SDS011;45073;52.740;6.784;2023-08-12T12:51:13;5.40;;;1.88;;
59300;SDS011;45073;52.740;6.784;2023-08-12T12:53:40;5.03;;;1.70;;
59300;SDS011;45073;52.740;6.784;2023-08-12T12:56:06;5.43;;;2.65;;
59300;SDS011;45073;52.740;6.784;2023-08-12T12:58:32;5.47;;;1.90;;
59300;SDS011;45073;52.740;6.784;2023-08-12T13:01:02;5.60;;;2.25;;
59300;SDS011;45073;52.740;6.784;2023-08-12T13:03:31;5.35;;;1.75;;
59300;SDS011;45073;52.740;6.784;2023-08-12T13:05:57;8.35;;;2.38;;
59300;SDS011;45073;52.740;6.784;2023-08-12T13:08:24;6.47;;;1.85;;
59300;SDS011;45073;52.740;6.784;2023-08-12T13:10:50;6.75;;;1.77;;
59300;SDS011;45073;52.740;6.784;2023-08-12T13:13:16;6.45;;;1.98;;
59300;SDS011;45073;52.740;6.784;2023-08-12T13:15:43;6.60;;;2.33;;
59300;SDS011;45073;52.740;6.784;2023-08-12T13:18:10;7.88;;;1.90;;
59300;SDS011;45073;52.740;6.784;2023-08-12T13:20:36;7.47;;;2.10;;
59300;SDS011;45073;52.740;6.784;2023-08-12T13:23:02;8.02;;;2.13;;
59300;SDS011;45073;52.740;6.784;2023-08-12T13:25:29;6.97;;;2.05;;
59300;SDS011;45073;52.740;6.784;2023-08-12T13:27:56;9.52;;;2.28;;
59300;SDS011;45073;52.740;6.784;2023-08-12T13:30:21;6.80;;;1.88;;
59300;SDS011;45073;52.740;6.784;2023-08-12T13:32:47;7.60;;;2.30;;
59300;SDS011;45073;52.740;6.784;2023-08-12T13:35:13;7.32;;;1.98;;
59300;SDS011;45073;52.740;6.784;2023-08-12T13:37:39;7.68;;;2.17;;
59300;SDS011;45073;52.740;6.784;2023-08-12T13:40:05;7.03;;;2.03;;
59300;SDS011;45073;52.740;6.784;2023-08-12T13:42:31;7.85;;;2.30;;
59300;SDS011;45073;52.740;6.784;2023-08-12T13:44:57;7.75;;;2.30;;
59300;SDS011;45073;52.740;6.784;2023-08-12T13:47:22;9.80;;;2.20;;
59300;SDS011;45073;52.740;6.784;2023-08-12T13:49:48;7.57;;;2.05;;
59300;SDS011;45073;52.740;6.784;2023-08-12T13:52:14;9.05;;;2.40;;
59300;SDS011;45073;52.740;6.784;2023-08-12T13:54:40;6.78;;;2.28;;
59300;SDS011;45073;52.740;6.784;2023-08-12T13:57:06;7.80;;;2.05;;
59300;SDS011;45073;52.740;6.784;2023-08-12T13:59:31;8.75;;;2.30;;
59300;SDS011;45073;52.740;6.784;2023-08-12T14:01:57;8.82;;;2.10;;
59300;SDS011;45073;52.740;6.784;2023-08-12T14:04:23;10.05;;;2.30;;
59300;SDS011;45073;52.740;6.784;2023-08-12T14:06:48;8.55;;;2.22;;
59300;SDS011;45073;52.740;6.784;2023-08-12T14:09:14;9.55;;;2.42;;
59300;SDS011;45073;52.740;6.784;2023-08-12T14:11:42;9.20;;;2.70;;
59300;SDS011;45073;52.740;6.784;2023-08-12T14:14:07;10.70;;;2.22;;
59300;SDS011;45073;52.740;6.784;2023-08-12T14:16:33;8.25;;;2.05;;
59300;SDS011;45073;52.740;6.784;2023-08-12T14:19:00;9.77;;;2.28;;
59300;SDS011;45073;52.740;6.784;2023-08-12T14:21:25;9.35;;;2.80;;
59300;SDS011;45073;52.740;6.784;2023-08-12T14:23:51;9.30;;;2.10;;
59300;SDS011;45073;52.740;6.784;2023-08-12T14:26:17;10.73;;;2.67;;
59300;SDS011;45073;52.740;6.784;2023-08-12T14:28:42;9.48;;;2.47;;
59300;SDS011;45073;52.740;6.784;2023-08-12T14:31:08;9.85;;;2.60;;
59300;SDS011;45073;52.740;6.784;2023-08-12T14:33:34;8.80;;;2.45;;
59300;SDS011;45073;52.740;6.784;2023-08-12T14:36:02;9.20;;;2.50;;
59300;SDS011;45073;52.740;6.784;2023-08-12T14:38:28;8.60;;;2.25;;